Time;durP1;ratioP1;P1;durP2;ratioP2;P2;SDS_P1;SDS_P2;PMS_P1;PMS_P2;Temp;Humidity;BMP_temperature;BMP_pressure;BME280_temperature;BME280_humidity;BME280_pressure;Samples;Min_cycle;Max_cycle;Signal;HPM_P1;HPM_P2
2022/12/29 00:01:16;;;;;;;0.00;0.00;;;;;;;;;;5075091;28;20207;-78
2022/12/29 00:03:47;;;;;;;0.00;0.00;;;;;;;;;;5074395;28;20260;-77
2022/12/29 00:06:15;;;;;;;0.00;0.00;;;;;;;;;;5074970;28;20226;-77
2022/12/29 00:08:44;;;;;;;0.00;0.00;;;;;;;;;;5087566;28;20198;-77
2022/12/29 00:11:13;;;;;;;0.00;0.00;;;;;;;;;;5094367;28;20229;-77
2022/12/29 00:16:30;;;;;;;0.00;0.00;;;;;;;;;;5075222;28;20222;-78
2022/12/29 00:18:58;;;;;;;0.00;0.00;;;;;;;;;;5095104;28;20186;-77
2022/12/29 00:35:31;;;;;;;0.00;0.00;;;;;;;;;;5012490;28;20215;-77
2022/12/29 00:46:21;;;;;;;0.00;0.00;;;;;;;;;;5094109;28;20221;-80
2022/12/29 00:51:37;;;;;;;0.00;0.00;;;;;;;;;;5093860;28;20563;-76
2022/12/29 00:54:05;;;;;;;0.00;0.00;;;;;;;;;;5076996;28;20207;-77
2022/12/29 00:56:34;;;;;;;0.00;0.00;;;;;;;;;;5074014;28;20218;-77
2022/12/29 00:59:02;;;;;;;0.00;0.00;;;;;;;;;;5073393;28;20194;-78
2022/12/29 01:01:31;;;;;;;0.00;0.00;;;;;;;;;;5074218;28;20252;-76
2022/12/29 01:04:01;;;;;;;0.00;0.00;;;;;;;;;;5073557;28;20218;-77
2022/12/29 01:06:32;;;;;;;0.00;0.00;;;;;;;;;;5074177;28;20625;-77
2022/12/29 01:11:46;;;;;;;0.00;0.00;;;;;;;;;;5073553;28;20642;-80
2022/12/29 01:14:15;;;;;;;0.00;0.00;;;;;;;;;;5078578;28;20709;-80
2022/12/29 01:16:45;;;;;;;0.00;0.00;;;;;;;;;;5073723;28;20651;-80
2022/12/29 01:19:15;;;;;;;0.00;0.00;;;;;;;;;;5081273;28;20643;-80
2022/12/29 01:21:45;;;;;;;0.00;0.00;;;;;;;;;;5073601;28;20182;-79
2022/12/29 01:24:14;;;;;;;0.00;0.00;;;;;;;;;;5073441;28;20695;-79
2022/12/29 01:26:42;;;;;;;0.00;0.00;;;;;;;;;;5073304;28;20250;-79
2022/12/29 01:29:10;;;;;;;0.00;0.00;;;;;;;;;;5073328;28;20214;-79
2022/12/29 01:31:39;;;;;;;0.00;0.00;;;;;;;;;;5073144;28;20263;-79
2022/12/29 01:34:07;;;;;;;0.00;0.00;;;;;;;;;;5072882;28;20298;-78
2022/12/29 01:36:37;;;;;;;0.00;0.00;;;;;;;;;;5073280;28;20276;-79
2022/12/29 01:39:05;;;;;;;0.00;0.00;;;;;;;;;;5073450;28;20234;-79
2022/12/29 01:41:34;;;;;;;0.00;0.00;;;;;;;;;;5072870;28;20210;-79
2022/12/29 01:44:04;;;;;;;0.00;0.00;;;;;;;;;;5073219;28;20674;-80
2022/12/29 01:46:38;;;;;;;0.00;0.00;;;;;;;;;;5073174;28;20652;-79
2022/12/29 01:49:12;;;;;;;0.00;0.00;;;;;;;;;;5073526;28;20197;-78
2022/12/29 01:51:44;;;;;;;0.00;0.00;;;;;;;;;;5073014;28;20676;-80
2022/12/29 01:54:14;;;;;;;0.00;0.00;;;;;;;;;;5072994;28;20237;-80
2022/12/29 01:56:43;;;;;;;0.00;0.00;;;;;;;;;;5073226;28;20284;-79
2022/12/29 01:59:14;;;;;;;0.00;0.00;;;;;;;;;;5073170;28;20202;-79
2022/12/29 02:01:42;;;;;;;0.00;0.00;;;;;;;;;;5072943;28;20538;-80
2022/12/29 02:04:12;;;;;;;0.00;0.00;;;;;;;;;;5072796;28;20705;-79
2022/12/29 02:06:45;;;;;;;0.00;0.00;;;;;;;;;;5073242;28;20287;-80
2022/12/29 02:09:13;;;;;;;0.00;0.00;;;;;;;;;;5072471;28;20194;-79
2022/12/29 02:11:42;;;;;;;0.00;0.00;;;;;;;;;;5073266;28;20233;-80
2022/12/29 02:14:11;;;;;;;0.00;0.00;;;;;;;;;;5072533;28;20234;-80
2022/12/29 02:16:46;;;;;;;0.00;0.00;;;;;;;;;;5072887;28;20254;-80
2022/12/29 02:19:34;;;;;;;0.00;0.00;;;;;;;;;;5073002;28;20187;-80
2022/12/29 02:22:08;;;;;;;0.00;0.00;;;;;;;;;;5072844;28;20205;-79
2022/12/29 02:24:57;;;;;;;0.00;0.00;;;;;;;;;;5076339;28;20210;-79
2022/12/29 02:27:33;;;;;;;0.00;0.00;;;;;;;;;;5076071;28;20219;-80
2022/12/29 02:30:06;;;;;;;0.00;0.00;;;;;;;;;;5077133;28;20206;-80
2022/12/29 02:32:39;;;;;;;0.00;0.00;;;;;;;;;;5076319;28;20179;-79
2022/12/29 02:35:11;;;;;;;0.00;0.00;;;;;;;;;;5076522;28;20236;-79
2022/12/29 02:37:42;;;;;;;0.00;0.00;;;;;;;;;;5076093;28;20307;-79
2022/12/29 02:40:15;;;;;;;0.00;0.00;;;;;;;;;;5076304;28;20240;-78
2022/12/29 02:42:48;;;;;;;0.00;0.00;;;;;;;;;;5076088;28;20194;-79
2022/12/29 02:45:19;;;;;;;0.00;0.00;;;;;;;;;;5076566;28;20215;-79
2022/12/29 02:47:51;;;;;;;0.00;0.00;;;;;;;;;;5076536;28;20240;-79
2022/12/29 02:50:23;;;;;;;0.00;0.00;;;;;;;;;;5075999;28;20312;-79
2022/12/29 02:53:06;;;;;;;0.00;0.00;;;;;;;;;;5034105;28;20200;-79
2022/12/29 02:55:34;;;;;;;0.00;0.00;;;;;;;;;;5033831;28;20665;-79
2022/12/29 02:58:23;;;;;;;0.00;0.00;;;;;;;;;;5018826;28;20272;-79
2022/12/29 03:01:06;;;;;;;0.00;0.00;;;;;;;;;;5007377;28;20236;-79
2022/12/29 03:03:46;;;;;;;0.00;0.00;;;;;;;;;;5014219;28;20250;-79
2022/12/29 03:06:22;;;;;;;0.00;0.00;;;;;;;;;;5020409;28;20770;-79
2022/12/29 03:08:55;;;;;;;0.00;0.00;;;;;;;;;;5021004;28;20254;-78
2022/12/29 03:17:05;;;;;;;0.00;0.00;;;;;;;;;;5015755;28;20254;-79
2022/12/29 03:19:37;;;;;;;0.00;0.00;;;;;;;;;;5033557;28;20700;-79
2022/12/29 03:24:54;;;;;;;0.00;0.00;;;;;;;;;;5067172;28;20583;-79
2022/12/29 03:27:26;;;;;;;0.00;0.00;;;;;;;;;;5075506;28;20656;-79
2022/12/29 03:29:56;;;;;;;0.00;0.00;;;;;;;;;;5075228;28;20237;-79
2022/12/29 03:32:26;;;;;;;0.00;0.00;;;;;;;;;;5077980;28;20240;-79
2022/12/29 03:34:56;;;;;;;0.00;0.00;;;;;;;;;;5094506;28;20228;-78
2022/12/29 03:37:27;;;;;;;0.00;0.00;;;;;;;;;;5076838;28;20264;-79
2022/12/29 03:39:56;;;;;;;0.00;0.00;;;;;;;;;;5075284;28;20198;-79
2022/12/29 03:42:27;;;;;;;0.00;0.00;;;;;;;;;;5074687;28;20736;-79
2022/12/29 03:44:56;;;;;;;0.00;0.00;;;;;;;;;;5077468;28;20206;-80
2022/12/29 03:47:25;;;;;;;0.00;0.00;;;;;;;;;;5075273;28;20584;-79
2022/12/29 03:49:53;;;;;;;0.00;0.00;;;;;;;;;;5075145;28;20244;-80
2022/12/29 03:52:23;;;;;;;0.00;0.00;;;;;;;;;;5075018;28;20264;-80
2022/12/29 03:54:52;;;;;;;0.00;0.00;;;;;;;;;;5074570;28;20203;-80
2022/12/29 03:57:20;;;;;;;0.00;0.00;;;;;;;;;;5074662;28;20222;-80
2022/12/29 03:59:48;;;;;;;0.00;0.00;;;;;;;;;;5075080;28;20714;-79
2022/12/29 04:02:17;;;;;;;0.00;0.00;;;;;;;;;;5074808;28;20203;-80
2022/12/29 04:04:46;;;;;;;0.00;0.00;;;;;;;;;;5074657;28;20584;-79
2022/12/29 04:07:14;;;;;;;0.00;0.00;;;;;;;;;;5074759;28;20218;-78
2022/12/29 04:09:44;;;;;;;0.00;0.00;;;;;;;;;;5075752;28;20203;-79
2022/12/29 04:12:13;;;;;;;0.00;0.00;;;;;;;;;;5076276;28;20195;-80
2022/12/29 04:14:41;;;;;;;0.00;0.00;;;;;;;;;;5074516;28;20324;-80
2022/12/29 04:17:10;;;;;;;0.00;0.00;;;;;;;;;;5077082;28;20578;-79
2022/12/29 04:19:38;;;;;;;0.00;0.00;;;;;;;;;;5082360;28;20209;-80
2022/12/29 04:22:06;;;;;;;0.00;0.00;;;;;;;;;;5094671;28;20262;-79
2022/12/29 04:24:35;;;;;;;0.00;0.00;;;;;;;;;;5094346;28;20260;-80
2022/12/29 04:27:05;;;;;;;0.00;0.00;;;;;;;;;;5086368;28;20245;-79
2022/12/29 04:29:33;;;;;;;0.00;0.00;;;;;;;;;;5077502;28;20186;-79
2022/12/29 04:32:02;;;;;;;0.00;0.00;;;;;;;;;;5090324;28;20202;-79
2022/12/29 04:34:30;;;;;;;0.00;0.00;;;;;;;;;;5094013;28;20263;-79
2022/12/29 04:36:59;;;;;;;0.00;0.00;;;;;;;;;;5077846;28;20218;-79
2022/12/29 04:39:27;;;;;;;0.00;0.00;;;;;;;;;;5073750;28;20233;-78
2022/12/29 04:41:55;;;;;;;0.00;0.00;;;;;;;;;;5074049;28;20252;-79
2022/12/29 04:44:25;;;;;;;0.00;0.00;;;;;;;;;;5078148;28;20227;-79
2022/12/29 04:46:53;;;;;;;0.00;0.00;;;;;;;;;;5094014;28;20558;-80
2022/12/29 04:49:22;;;;;;;0.00;0.00;;;;;;;;;;5094134;28;20206;-79
2022/12/29 04:51:50;;;;;;;0.00;0.00;;;;;;;;;;5093979;28;20213;-79
2022/12/29 04:54:19;;;;;;;0.00;0.00;;;;;;;;;;5091868;28;20612;-79
2022/12/29 04:56:47;;;;;;;0.00;0.00;;;;;;;;;;5073923;28;20218;-79
2022/12/29 04:59:16;;;;;;;0.00;0.00;;;;;;;;;;5074731;28;20671;-80
2022/12/29 05:01:45;;;;;;;0.00;0.00;;;;;;;;;;5078461;28;20206;-79
2022/12/29 05:04:14;;;;;;;0.00;0.00;;;;;;;;;;5080415;28;20662;-78
2022/12/29 05:06:42;;;;;;;0.00;0.00;;;;;;;;;;5093180;28;20257;-79
2022/12/29 05:09:11;;;;;;;0.00;0.00;;;;;;;;;;5086367;28;20214;-80
2022/12/29 05:11:39;;;;;;;0.00;0.00;;;;;;;;;;5093816;28;20228;-80
2022/12/29 05:14:08;;;;;;;0.00;0.00;;;;;;;;;;5078083;28;20267;-79
2022/12/29 05:16:36;;;;;;;0.00;0.00;;;;;;;;;;5084640;28;20265;-79
2022/12/29 05:19:06;;;;;;;0.00;0.00;;;;;;;;;;5086429;28;20332;-79
2022/12/29 05:21:34;;;;;;;0.00;0.00;;;;;;;;;;5073431;28;20285;-79
2022/12/29 05:24:03;;;;;;;0.00;0.00;;;;;;;;;;5073616;28;20672;-79
2022/12/29 05:26:31;;;;;;;0.00;0.00;;;;;;;;;;5073400;28;20749;-79
2022/12/29 05:29:00;;;;;;;0.00;0.00;;;;;;;;;;5073680;28;20227;-79
2022/12/29 05:31:29;;;;;;;0.00;0.00;;;;;;;;;;5084023;28;20305;-79
2022/12/29 05:33:57;;;;;;;0.00;0.00;;;;;;;;;;5073337;28;20253;-78
2022/12/29 05:36:27;;;;;;;0.00;0.00;;;;;;;;;;5073336;28;20683;-79
2022/12/29 05:39:03;;;;;;;0.00;0.00;;;;;;;;;;5072501;28;20246;-79
2022/12/29 05:41:31;;;;;;;0.00;0.00;;;;;;;;;;5072926;28;20440;-79
2022/12/29 05:44:00;;;;;;;0.00;0.00;;;;;;;;;;5073257;28;20206;-80
2022/12/29 05:46:29;;;;;;;0.00;0.00;;;;;;;;;;5072465;28;20226;-78
2022/12/29 05:48:57;;;;;;;0.00;0.00;;;;;;;;;;5073331;28;20717;-81
2022/12/29 05:51:26;;;;;;;0.00;0.00;;;;;;;;;;5072821;28;20229;-80
2022/12/29 05:53:55;;;;;;;0.00;0.00;;;;;;;;;;5072800;28;20230;-80
2022/12/29 05:56:24;;;;;;;0.00;0.00;;;;;;;;;;5073174;28;20561;-80
2022/12/29 05:58:52;;;;;;;0.00;0.00;;;;;;;;;;5076359;28;20202;-80
2022/12/29 06:01:21;;;;;;;0.00;0.00;;;;;;;;;;5076493;28;20245;-79
2022/12/29 06:03:49;;;;;;;0.00;0.00;;;;;;;;;;5076975;28;20240;-80
2022/12/29 06:06:18;;;;;;;0.00;0.00;;;;;;;;;;5076496;28;20233;-81
2022/12/29 06:08:46;;;;;;;0.00;0.00;;;;;;;;;;5076539;28;20245;-80
2022/12/29 06:11:16;;;;;;;0.00;0.00;;;;;;;;;;5076578;28;20211;-80
2022/12/29 06:13:44;;;;;;;0.00;0.00;;;;;;;;;;5076724;28;20210;-80
2022/12/29 06:16:13;;;;;;;0.00;0.00;;;;;;;;;;5076580;28;20280;-79
2022/12/29 06:18:42;;;;;;;0.00;0.00;;;;;;;;;;5076731;28;20209;-80
2022/12/29 06:21:10;;;;;;;0.00;0.00;;;;;;;;;;5076086;28;20260;-80
2022/12/29 06:23:38;;;;;;;0.00;0.00;;;;;;;;;;5076613;28;20663;-80
2022/12/29 06:26:07;;;;;;;0.00;0.00;;;;;;;;;;5076238;28;20230;-80
2022/12/29 06:28:37;;;;;;;0.00;0.00;;;;;;;;;;5076636;28;20225;-80
2022/12/29 06:31:05;;;;;;;0.00;0.00;;;;;;;;;;5075706;28;20237;-80
2022/12/29 06:33:34;;;;;;;0.00;0.00;;;;;;;;;;5076007;28;20206;-79
2022/12/29 06:36:02;;;;;;;0.00;0.00;;;;;;;;;;5076368;28;20226;-79
2022/12/29 06:38:31;;;;;;;0.00;0.00;;;;;;;;;;5084631;28;20267;-79
2022/12/29 06:40:59;;;;;;;0.00;0.00;;;;;;;;;;5096316;28;20249;-79
2022/12/29 06:43:28;;;;;;;0.00;0.00;;;;;;;;;;5085362;28;20234;-80
2022/12/29 06:45:57;;;;;;;0.00;0.00;;;;;;;;;;5085890;28;20309;-80
2022/12/29 06:48:26;;;;;;;0.00;0.00;;;;;;;;;;5086292;28;20619;-79
2022/12/29 06:50:54;;;;;;;0.00;0.00;;;;;;;;;;5075997;28;20613;-79
2022/12/29 06:53:23;;;;;;;0.00;0.00;;;;;;;;;;5081781;28;20217;-79
2022/12/29 06:55:51;;;;;;;0.00;0.00;;;;;;;;;;5096000;28;20267;-80
2022/12/29 06:58:20;;;;;;;0.00;0.00;;;;;;;;;;5086800;28;20256;-79
2022/12/29 07:00:49;;;;;;;0.00;0.00;;;;;;;;;;5074710;28;20206;-80
2022/12/29 07:03:19;;;;;;;0.00;0.00;;;;;;;;;;5075070;28;20213;-81
2022/12/29 07:05:47;;;;;;;0.00;0.00;;;;;;;;;;5074212;28;20698;-79
2022/12/29 07:08:15;;;;;;;0.00;0.00;;;;;;;;;;5074432;28;20241;-80
2022/12/29 07:10:44;;;;;;;0.00;0.00;;;;;;;;;;5075542;28;20698;-78
2022/12/29 07:13:12;;;;;;;0.00;0.00;;;;;;;;;;5075325;28;20206;-79
2022/12/29 07:15:41;;;;;;;0.00;0.00;;;;;;;;;;5075682;28;20288;-79
2022/12/29 07:18:09;;;;;;;0.00;0.00;;;;;;;;;;5075691;28;20221;-79
2022/12/29 07:20:39;;;;;;;0.00;0.00;;;;;;;;;;5081344;28;20285;-80
2022/12/29 07:23:08;;;;;;;0.00;0.00;;;;;;;;;;5095662;28;20319;-80
2022/12/29 07:25:36;;;;;;;0.00;0.00;;;;;;;;;;5095804;28;20197;-79
2022/12/29 07:28:05;;;;;;;0.00;0.00;;;;;;;;;;5095716;28;20318;-79
2022/12/29 07:30:33;;;;;;;0.00;0.00;;;;;;;;;;5095691;28;20657;-79
2022/12/29 07:33:02;;;;;;;0.00;0.00;;;;;;;;;;5089863;28;20195;-79
2022/12/29 07:35:30;;;;;;;0.00;0.00;;;;;;;;;;5075371;28;20211;-79
2022/12/29 07:38:00;;;;;;;0.00;0.00;;;;;;;;;;5075099;28;20199;-79
2022/12/29 07:40:28;;;;;;;0.00;0.00;;;;;;;;;;5075145;28;20218;-79
2022/12/29 07:42:57;;;;;;;0.00;0.00;;;;;;;;;;5075298;28;20256;-79
2022/12/29 07:45:25;;;;;;;0.00;0.00;;;;;;;;;;5075602;28;20287;-79
2022/12/29 07:47:53;;;;;;;0.00;0.00;;;;;;;;;;5074771;28;20230;-79
2022/12/29 07:50:22;;;;;;;0.00;0.00;;;;;;;;;;5075029;28;20237;-79
2022/12/29 07:52:51;;;;;;;0.00;0.00;;;;;;;;;;5074749;28;20207;-79
2022/12/29 07:55:20;;;;;;;0.00;0.00;;;;;;;;;;5074584;28;20202;-78
2022/12/29 07:57:49;;;;;;;0.00;0.00;;;;;;;;;;5074942;28;20668;-79
2022/12/29 08:00:17;;;;;;;0.00;0.00;;;;;;;;;;5087140;28;20259;-79
2022/12/29 08:02:46;;;;;;;0.00;0.00;;;;;;;;;;5096624;28;20206;-77
2022/12/29 08:05:15;;;;;;;0.00;0.00;;;;;;;;;;5096285;28;20228;-77
2022/12/29 08:07:44;;;;;;;0.00;0.00;;;;;;;;;;5094320;28;20277;-77
2022/12/29 08:10:13;;;;;;;0.00;0.00;;;;;;;;;;5085273;28;20989;-77
2022/12/29 08:12:43;;;;;;;0.00;0.00;;;;;;;;;;5092819;28;20574;-77
2022/12/29 08:15:12;;;;;;;0.00;0.00;;;;;;;;;;5077095;28;20209;-77
2022/12/29 08:17:40;;;;;;;0.00;0.00;;;;;;;;;;5076854;28;20718;-76
2022/12/29 08:20:09;;;;;;;0.00;0.00;;;;;;;;;;5075447;28;20203;-77
2022/12/29 08:22:38;;;;;;;0.00;0.00;;;;;;;;;;5076220;28;20249;-77
2022/12/29 08:25:07;;;;;;;0.00;0.00;;;;;;;;;;5084882;28;20213;-77
2022/12/29 08:27:35;;;;;;;0.00;0.00;;;;;;;;;;5096300;28;20275;-77
2022/12/29 08:30:05;;;;;;;0.00;0.00;;;;;;;;;;5086883;28;20256;-77
2022/12/29 08:32:34;;;;;;;0.00;0.00;;;;;;;;;;5075826;28;20190;-77
2022/12/29 08:35:02;;;;;;;0.00;0.00;;;;;;;;;;5074854;28;20213;-77
2022/12/29 08:37:31;;;;;;;0.00;0.00;;;;;;;;;;5078642;28;20272;-78
2022/12/29 08:40:03;;;;;;;0.00;0.00;;;;;;;;;;5074728;28;20206;-76
2022/12/29 08:42:31;;;;;;;0.00;0.00;;;;;;;;;;5074447;28;20213;-77
2022/12/29 08:45:00;;;;;;;0.00;0.00;;;;;;;;;;5074407;28;20206;-76
2022/12/29 08:47:30;;;;;;;0.00;0.00;;;;;;;;;;5074729;28;20249;-77
2022/12/29 08:49:58;;;;;;;0.00;0.00;;;;;;;;;;5074546;28;20199;-77
2022/12/29 08:52:27;;;;;;;0.00;0.00;;;;;;;;;;5079353;28;20233;-77
2022/12/29 08:54:55;;;;;;;0.00;0.00;;;;;;;;;;5077768;28;20206;-76
2022/12/29 08:57:24;;;;;;;0.00;0.00;;;;;;;;;;5090779;28;20221;-76
2022/12/29 08:59:53;;;;;;;0.00;0.00;;;;;;;;;;5094064;28;20201;-77
2022/12/29 09:02:21;;;;;;;0.00;0.00;;;;;;;;;;5080665;28;20252;-77
2022/12/29 09:04:53;;;;;;;0.00;0.00;;;;;;;;;;5073690;28;20651;-77
2022/12/29 09:07:22;;;;;;;0.00;0.00;;;;;;;;;;5073817;28;20284;-77
2022/12/29 09:09:51;;;;;;;0.00;0.00;;;;;;;;;;5077836;28;20208;-77
2022/12/29 09:12:22;;;;;;;0.00;0.00;;;;;;;;;;5090908;28;20202;-76
2022/12/29 09:14:51;;;;;;;0.00;0.00;;;;;;;;;;5076567;28;20205;-77
2022/12/29 09:20:08;;;;;;;0.00;0.00;;;;;;;;;;5093749;28;20215;-77
2022/12/29 09:26:06;;;;;;;0.00;0.00;;;;;;;;;;5073890;28;20216;-80
2022/12/29 09:28:34;;;;;;;0.00;0.00;;;;;;;;;;5082621;28;20347;-82
2022/12/29 09:31:04;;;;;;;0.00;0.00;;;;;;;;;;5098813;28;20646;-82
2022/12/29 09:33:34;;;;;;;0.00;0.00;;;;;;;;;;5097525;28;20262;-77
2022/12/29 09:36:04;;;;;;;0.00;0.00;;;;;;;;;;5092368;28;20221;-76
2022/12/29 09:38:33;;;;;;;0.00;0.00;;;;;;;;;;5092033;28;20201;-77
2022/12/29 09:41:06;;;;;;;0.00;0.00;;;;;;;;;;5093664;28;20206;-77
2022/12/29 09:43:44;;;;;;;0.00;0.00;;;;;;;;;;5089464;28;20548;-76
2022/12/29 09:46:20;;;;;;;0.00;0.00;;;;;;;;;;5092607;28;20252;-77
2022/12/29 09:48:52;;;;;;;0.00;0.00;;;;;;;;;;5093362;28;20229;-77
2022/12/29 09:51:23;;;;;;;0.00;0.00;;;;;;;;;;5081149;28;20207;-76
2022/12/29 09:53:53;;;;;;;0.00;0.00;;;;;;;;;;5091017;28;20537;-77
2022/12/29 09:56:23;;;;;;;0.00;0.00;;;;;;;;;;5094730;28;20550;-76
2022/12/29 09:58:53;;;;;;;0.00;0.00;;;;;;;;;;5093790;28;20208;-77
2022/12/29 10:01:26;;;;;;;0.00;0.00;;;;;;;;;;5094213;28;20189;-78
2022/12/29 10:03:56;;;;;;;0.00;0.00;;;;;;;;;;5093818;28;20193;-76
2022/12/29 10:06:27;;;;;;;0.00;0.00;;;;;;;;;;5088796;28;20379;-77
2022/12/29 10:09:00;;;;;;;0.00;0.00;;;;;;;;;;5073716;28;20242;-76
2022/12/29 10:11:34;;;;;;;0.00;0.00;;;;;;;;;;5075491;28;20229;-77
2022/12/29 10:14:18;;;;;;;0.00;0.00;;;;;;;;;;5078340;28;20306;-77
2022/12/29 10:16:49;;;;;;;0.00;0.00;;;;;;;;;;5079596;28;20687;-76
2022/12/29 10:19:25;;;;;;;0.00;0.00;;;;;;;;;;5089998;28;20685;-76
2022/12/29 10:22:06;;;;;;;0.00;0.00;;;;;;;;;;5093622;28;20186;-76
2022/12/29 10:24:36;;;;;;;0.00;0.00;;;;;;;;;;5075919;28;20226;-76
2022/12/29 10:27:05;;;;;;;0.00;0.00;;;;;;;;;;5073373;28;20756;-76
2022/12/29 10:29:34;;;;;;;0.00;0.00;;;;;;;;;;5072508;28;20264;-76
2022/12/29 10:32:05;;;;;;;0.00;0.00;;;;;;;;;;5072770;28;20206;-77
2022/12/29 10:34:37;;;;;;;0.00;0.00;;;;;;;;;;5072655;28;20272;-76
2022/12/29 10:37:11;;;;;;;0.00;0.00;;;;;;;;;;5073513;28;20371;-77
2022/12/29 10:39:42;;;;;;;0.00;0.00;;;;;;;;;;5073127;28;20182;-76
2022/12/29 10:42:13;;;;;;;0.00;0.00;;;;;;;;;;5073265;28;20211;-77
2022/12/29 10:44:41;;;;;;;0.00;0.00;;;;;;;;;;5079391;28;20201;-77
2022/12/29 10:47:13;;;;;;;0.00;0.00;;;;;;;;;;5076770;28;20601;-77
2022/12/29 10:49:43;;;;;;;0.00;0.00;;;;;;;;;;5076719;28;20297;-77
2022/12/29 10:52:13;;;;;;;0.00;0.00;;;;;;;;;;5077090;28;20195;-76
2022/12/29 10:54:45;;;;;;;0.00;0.00;;;;;;;;;;5093600;28;20205;-76
2022/12/29 10:57:26;;;;;;;0.00;0.00;;;;;;;;;;5097286;28;20256;-77
2022/12/29 10:59:54;;;;;;;0.00;0.00;;;;;;;;;;5096975;28;20177;-77
2022/12/29 11:02:28;;;;;;;0.00;0.00;;;;;;;;;;5097148;28;20197;-78
2022/12/29 11:04:59;;;;;;;0.00;0.00;;;;;;;;;;5079504;28;20251;-77
2022/12/29 11:07:29;;;;;;;0.00;0.00;;;;;;;;;;5081262;28;20248;-77
2022/12/29 11:10:17;;;;;;;0.00;0.00;;;;;;;;;;5081297;28;20741;-77
2022/12/29 11:12:56;;;;;;;0.00;0.00;;;;;;;;;;5076639;28;20245;-76
2022/12/29 11:15:24;;;;;;;0.00;0.00;;;;;;;;;;5076644;28;20608;-77
2022/12/29 11:17:54;;;;;;;0.00;0.00;;;;;;;;;;5076243;28;20237;-77
2022/12/29 11:20:33;;;;;;;0.00;0.00;;;;;;;;;;5095903;28;20205;-77
2022/12/29 11:23:03;;;;;;;0.00;0.00;;;;;;;;;;5094490;28;20616;-76
2022/12/29 11:25:32;;;;;;;0.00;0.00;;;;;;;;;;5078396;28;20252;-77
2022/12/29 11:28:02;;;;;;;0.00;0.00;;;;;;;;;;5076421;28;20575;-77
2022/12/29 11:30:31;;;;;;;0.00;0.00;;;;;;;;;;5076289;28;20256;-77
2022/12/29 11:32:59;;;;;;;0.00;0.00;;;;;;;;;;5081108;28;20652;-77
2022/12/29 11:35:32;;;;;;;0.00;0.00;;;;;;;;;;5081162;28;20213;-77
2022/12/29 11:38:01;;;;;;;0.00;0.00;;;;;;;;;;5087368;28;21199;-77
2022/12/29 11:40:31;;;;;;;0.00;0.00;;;;;;;;;;5075786;28;20260;-76
2022/12/29 11:43:02;;;;;;;0.00;0.00;;;;;;;;;;5076167;28;20625;-77
2022/12/29 11:45:32;;;;;;;0.00;0.00;;;;;;;;;;5085849;28;20228;-76
2022/12/29 11:48:02;;;;;;;0.00;0.00;;;;;;;;;;5093438;28;20198;-76
2022/12/29 11:50:33;;;;;;;0.00;0.00;;;;;;;;;;5083979;28;20263;-76
2022/12/29 11:53:03;;;;;;;0.00;0.00;;;;;;;;;;5082604;28;20236;-77
2022/12/29 11:55:33;;;;;;;0.00;0.00;;;;;;;;;;5073743;28;20678;-77
2022/12/29 11:58:04;;;;;;;0.00;0.00;;;;;;;;;;5089906;28;20197;-76
2022/12/29 12:00:33;;;;;;;0.00;0.00;;;;;;;;;;5079499;28;20217;-76
2022/12/29 12:03:02;;;;;;;0.00;0.00;;;;;;;;;;5078998;28;20234;-76
2022/12/29 12:05:34;;;;;;;0.00;0.00;;;;;;;;;;5074656;28;20221;-76
2022/12/29 12:08:04;;;;;;;0.00;0.00;;;;;;;;;;5085976;28;20243;-76
2022/12/29 12:10:38;;;;;;;0.00;0.00;;;;;;;;;;5080773;28;20210;-76
2022/12/29 12:13:12;;;;;;;0.00;0.00;;;;;;;;;;5075345;28;20202;-77
2022/12/29 12:15:42;;;;;;;0.00;0.00;;;;;;;;;;5075471;28;20218;-76
2022/12/29 12:18:19;;;;;;;0.00;0.00;;;;;;;;;;5074898;28;20194;-77
2022/12/29 12:20:49;;;;;;;0.00;0.00;;;;;;;;;;5081130;28;20618;-77
2022/12/29 12:23:24;;;;;;;0.00;0.00;;;;;;;;;;5094721;28;20223;-77
2022/12/29 12:25:58;;;;;;;0.00;0.00;;;;;;;;;;5086583;28;20245;-77
2022/12/29 12:28:30;;;;;;;0.00;0.00;;;;;;;;;;5074413;28;20214;-76
2022/12/29 12:31:06;;;;;;;0.00;0.00;;;;;;;;;;5075643;28;20204;-76
2022/12/29 12:33:37;;;;;;;0.00;0.00;;;;;;;;;;5074090;28;20202;-77
2022/12/29 12:36:15;;;;;;;0.00;0.00;;;;;;;;;;5073807;28;20225;-76
2022/12/29 12:38:46;;;;;;;0.00;0.00;;;;;;;;;;5074326;28;20220;-77
2022/12/29 12:41:20;;;;;;;0.00;0.00;;;;;;;;;;5081773;28;20210;-77
2022/12/29 12:43:51;;;;;;;0.00;0.00;;;;;;;;;;5092873;28;20201;-77
2022/12/29 12:46:34;;;;;;;0.00;0.00;;;;;;;;;;5074632;28;20254;-77
2022/12/29 12:49:13;;;;;;;0.00;0.00;;;;;;;;;;5080680;28;20643;-76
2022/12/29 12:51:48;;;;;;;0.00;0.00;;;;;;;;;;5093963;28;20251;-76
2022/12/29 12:54:23;;;;;;;0.00;0.00;;;;;;;;;;5084801;28;20198;-77
2022/12/29 12:57:01;;;;;;;0.00;0.00;;;;;;;;;;5092127;28;20225;-77
2022/12/29 12:59:36;;;;;;;0.00;0.00;;;;;;;;;;5083856;28;20226;-76
2022/12/29 13:02:11;;;;;;;0.00;0.00;;;;;;;;;;5073980;28;20190;-77
2022/12/29 13:04:47;;;;;;;0.00;0.00;;;;;;;;;;5075324;28;20256;-76
2022/12/29 13:07:22;;;;;;;0.00;0.00;;;;;;;;;;5073538;28;20260;-76
2022/12/29 13:09:56;;;;;;;0.00;0.00;;;;;;;;;;5083049;28;20220;-77
2022/12/29 13:12:33;;;;;;;0.00;0.00;;;;;;;;;;5075560;28;20202;-76
2022/12/29 13:15:09;;;;;;;0.00;0.00;;;;;;;;;;5076314;28;20194;-76
2022/12/29 13:17:41;;;;;;;0.00;0.00;;;;;;;;;;5073794;28;20225;-77
2022/12/29 13:20:14;;;;;;;0.00;0.00;;;;;;;;;;5073815;28;20226;-76
2022/12/29 13:22:48;;;;;;;0.00;0.00;;;;;;;;;;5073463;28;20529;-77
2022/12/29 13:25:21;;;;;;;0.00;0.00;;;;;;;;;;5073269;28;20212;-76
2022/12/29 13:27:56;;;;;;;0.00;0.00;;;;;;;;;;5073813;28;20542;-77
2022/12/29 13:30:28;;;;;;;0.00;0.00;;;;;;;;;;5073361;28;20244;-77
2022/12/29 13:33:02;;;;;;;0.00;0.00;;;;;;;;;;5073640;28;20199;-77
2022/12/29 13:35:36;;;;;;;0.00;0.00;;;;;;;;;;5072959;28;20236;-78
2022/12/29 13:38:07;;;;;;;0.00;0.00;;;;;;;;;;5076468;28;20194;-77
2022/12/29 13:40:38;;;;;;;0.00;0.00;;;;;;;;;;5091283;28;20704;-77
2022/12/29 13:43:08;;;;;;;0.00;0.00;;;;;;;;;;5080999;28;20198;-77
2022/12/29 13:45:37;;;;;;;0.00;0.00;;;;;;;;;;5083210;28;20253;-77
2022/12/29 13:48:08;;;;;;;0.00;0.00;;;;;;;;;;5092748;28;20205;-78
2022/12/29 13:50:38;;;;;;;0.00;0.00;;;;;;;;;;5083898;28;20217;-77
2022/12/29 13:53:12;;;;;;;0.00;0.00;;;;;;;;;;5077685;28;20193;-77
2022/12/29 13:55:42;;;;;;;0.00;0.00;;;;;;;;;;5091068;28;20218;-76
2022/12/29 13:58:15;;;;;;;0.00;0.00;;;;;;;;;;5085592;28;20643;-78
2022/12/29 14:00:47;;;;;;;0.00;0.00;;;;;;;;;;5082997;28;20228;-76
2022/12/29 14:03:25;;;;;;;0.00;0.00;;;;;;;;;;5075704;28;20243;-76
2022/12/29 14:06:13;;;;;;;0.00;0.00;;;;;;;;;;5072584;28;20218;-77
2022/12/29 14:08:42;;;;;;;0.00;0.00;;;;;;;;;;5082843;28;20206;-76
2022/12/29 14:11:11;;;;;;;0.00;0.00;;;;;;;;;;5072806;28;20215;-77
2022/12/29 14:13:42;;;;;;;0.00;0.00;;;;;;;;;;5073411;28;20210;-76
2022/12/29 14:16:13;;;;;;;0.00;0.00;;;;;;;;;;5072782;28;20219;-76
2022/12/29 14:18:45;;;;;;;0.00;0.00;;;;;;;;;;5074176;28;20208;-77
2022/12/29 14:21:20;;;;;;;0.00;0.00;;;;;;;;;;5075244;28;20243;-76
2022/12/29 14:23:49;;;;;;;0.00;0.00;;;;;;;;;;5075894;28;20236;-77
2022/12/29 14:26:19;;;;;;;0.00;0.00;;;;;;;;;;5077915;28;20272;-76
2022/12/29 14:28:50;;;;;;;0.00;0.00;;;;;;;;;;5087163;28;20206;-77
2022/12/29 14:31:45;;;;;;;0.00;0.00;;;;;;;;;;5082883;28;20671;-77
2022/12/29 14:34:32;;;;;;;0.00;0.00;;;;;;;;;;5052856;28;20199;-75
2022/12/29 14:37:01;;;;;;;0.00;0.00;;;;;;;;;;5078505;28;20286;-76
2022/12/29 14:39:33;;;;;;;0.00;0.00;;;;;;;;;;5085573;28;20202;-78
2022/12/29 14:42:03;;;;;;;0.00;0.00;;;;;;;;;;5090840;28;20221;-76
2022/12/29 14:44:33;;;;;;;0.00;0.00;;;;;;;;;;5077431;28;20255;-76
2022/12/29 14:47:02;;;;;;;0.00;0.00;;;;;;;;;;5085658;28;20222;-76
2022/12/29 14:49:32;;;;;;;0.00;0.00;;;;;;;;;;5076648;28;20681;-76
2022/12/29 14:52:09;;;;;;;0.00;0.00;;;;;;;;;;5075613;28;20261;-76
2022/12/29 14:54:49;;;;;;;0.00;0.00;;;;;;;;;;5086950;28;20205;-76
2022/12/29 14:57:36;;;;;;;0.00;0.00;;;;;;;;;;5076210;28;20674;-76
2022/12/29 15:00:16;;;;;;;0.00;0.00;;;;;;;;;;5075287;28;20193;-76
2022/12/29 15:02:47;;;;;;;0.00;0.00;;;;;;;;;;5075940;28;20229;-77
2022/12/29 15:05:28;;;;;;;0.00;0.00;;;;;;;;;;5075719;28;20643;-76
2022/12/29 15:07:57;;;;;;;0.00;0.00;;;;;;;;;;5074936;28;20260;-75
2022/12/29 15:10:27;;;;;;;0.00;0.00;;;;;;;;;;5089444;28;20222;-76
2022/12/29 15:12:56;;;;;;;0.00;0.00;;;;;;;;;;5075541;28;20206;-77
2022/12/29 15:15:27;;;;;;;0.00;0.00;;;;;;;;;;5074934;28;20203;-75
2022/12/29 15:17:55;;;;;;;0.00;0.00;;;;;;;;;;5075300;28;20183;-76
2022/12/29 15:20:26;;;;;;;0.00;0.00;;;;;;;;;;5076332;28;20199;-76
2022/12/29 15:22:56;;;;;;;0.00;0.00;;;;;;;;;;5075869;28;20205;-76
2022/12/29 15:25:25;;;;;;;0.00;0.00;;;;;;;;;;5074427;28;20256;-76
2022/12/29 15:27:54;;;;;;;0.00;0.00;;;;;;;;;;5074959;28;20620;-76
2022/12/29 15:30:22;;;;;;;0.00;0.00;;;;;;;;;;5074765;28;20262;-76
2022/12/29 15:32:52;;;;;;;0.00;0.00;;;;;;;;;;5075530;28;20198;-76
2022/12/29 15:35:30;;;;;;;0.00;0.00;;;;;;;;;;5075076;28;20289;-76
2022/12/29 15:37:58;;;;;;;0.00;0.00;;;;;;;;;;5074632;28;20274;-76
2022/12/29 15:40:28;;;;;;;0.00;0.00;;;;;;;;;;5074069;28;20210;-76
2022/12/29 15:43:11;;;;;;;0.00;0.00;;;;;;;;;;5082741;28;20611;-75
2022/12/29 15:45:40;;;;;;;0.00;0.00;;;;;;;;;;5092968;28;20275;-76
2022/12/29 15:48:16;;;;;;;0.00;0.00;;;;;;;;;;5077589;28;20205;-76
2022/12/29 15:50:45;;;;;;;0.00;0.00;;;;;;;;;;5083649;28;20244;-77